Time;durP1;ratioP1;P1;durP2;ratioP2;P2;SDS_P1;SDS_P2;PMS_P1;PMS_P2;Temp;Humidity;BMP_temperature;BMP_pressure;BME280_temperature;BME280_humidity;BME280_pressure;Samples;Min_cycle;Max_cycle;Signal;HPM_P1;HPM_P2
2022/01/16 00:04:51;;;;;;;55.53;41.80;;;;;;;2.06;75.79;101911.19;5005283;28;20170;-68
2022/01/16 00:07:17;;;;;;;72.13;52.50;;;;;;;1.97;75.79;101916.31;5005487;28;20054;-67
2022/01/16 00:09:44;;;;;;;73.22;45.53;;;;;;;1.89;78.24;101920.59;5005388;28;20127;-67
2022/01/16 00:12:11;;;;;;;70.35;46.13;;;;;;;1.73;78.17;101924.91;5004048;28;20058;-68
2022/01/16 00:14:37;;;;;;;73.68;51.88;;;;;;;1.74;77.78;101926.59;5004246;28;20041;-67
2022/01/16 00:17:04;;;;;;;69.78;48.67;;;;;;;1.90;77.94;101912.00;5003965;28;20053;-68
2022/01/16 00:19:32;;;;;;;72.07;45.90;;;;;;;1.96;77.96;101884.41;5005931;28;20053;-67
2022/01/16 00:21:58;;;;;;;71.30;49.92;;;;;;;1.74;78.09;101874.00;5004355;28;20046;-67
2022/01/16 00:24:25;;;;;;;85.30;52.95;;;;;;;1.57;80.02;101897.25;5004924;28;20489;-68
2022/01/16 00:26:51;;;;;;;80.15;54.22;;;;;;;1.65;78.86;101913.66;5002948;28;20049;-67
2022/01/16 00:29:18;;;;;;;75.13;48.47;;;;;;;1.72;78.27;101918.00;5005654;28;20126;-67
2022/01/16 00:31:45;;;;;;;83.78;52.17;;;;;;;1.67;79.13;101917.09;5012322;28;20050;-67
2022/01/16 00:34:12;;;;;;;82.53;55.28;;;;;;;1.58;78.36;101905.88;5005767;28;20052;-67
2022/01/16 00:36:40;;;;;;;86.43;56.85;;;;;;;1.78;78.74;101911.94;5005733;28;20108;-66
2022/01/16 00:39:07;;;;;;;81.25;58.03;;;;;;;1.79;79.34;101904.22;5005455;28;20045;-67
2022/01/16 00:41:35;;;;;;;81.32;60.35;;;;;;;2.00;79.37;101911.16;5004263;28;20049;-67
2022/01/16 00:44:01;;;;;;;85.00;61.40;;;;;;;1.72;80.52;101893.84;5008924;28;20053;-67
2022/01/16 00:46:28;;;;;;;90.80;57.25;;;;;;;1.65;81.42;101874.00;5006545;28;20096;-67
2022/01/16 00:48:54;;;;;;;85.50;63.97;;;;;;;1.83;79.94;101869.75;5006220;28;20073;-67
2022/01/16 00:51:21;;;;;;;78.35;58.40;;;;;;;2.06;79.26;101856.84;5005723;28;20123;-67
2022/01/16 00:53:49;;;;;;;87.82;61.53;;;;;;;1.85;79.70;101847.31;5006110;28;20073;-67
2022/01/16 00:56:15;;;;;;;81.88;59.22;;;;;;;1.88;80.14;101857.69;5003857;28;20084;-68
2022/01/16 00:58:42;;;;;;;82.15;60.95;;;;;;;1.63;81.41;101873.13;5005546;28;20073;-67
2022/01/16 01:01:09;;;;;;;83.55;62.10;;;;;;;1.68;80.17;101866.25;5006275;28;20054;-67
2022/01/16 01:03:35;;;;;;;74.72;62.58;;;;;;;1.87;79.32;101861.13;5018735;28;20064;-67
2022/01/16 01:06:02;;;;;;;75.10;55.92;;;;;;;2.16;77.49;101868.06;5009796;28;20563;-67
2022/01/16 01:08:30;;;;;;;77.90;60.05;;;;;;;2.11;77.81;101854.25;5005981;28;20052;-67
2022/01/16 01:10:59;;;;;;;73.13;57.45;;;;;;;2.08;78.16;101859.41;5005519;28;20533;-67
2022/01/16 01:13:32;;;;;;;72.18;52.60;;;;;;;1.94;77.69;101841.31;5003547;28;20429;-67
2022/01/16 01:16:02;;;;;;;69.18;52.33;;;;;;;1.84;77.31;101845.63;5001077;28;20042;-67
2022/01/16 01:18:30;;;;;;;69.95;45.28;;;;;;;1.74;79.11;101832.66;5004073;28;20409;-67
2022/01/16 01:20:57;;;;;;;78.88;57.25;;;;;;;2.12;77.34;101830.09;5006658;28;20445;-67
2022/01/16 01:23:24;;;;;;;83.72;58.85;;;;;;;2.29;76.59;101836.16;5005607;28;20053;-67
2022/01/16 01:25:51;;;;;;;74.65;55.63;;;;;;;2.17;76.97;101833.56;5005098;28;20104;-67
2022/01/16 01:28:18;;;;;;;76.70;55.88;;;;;;;2.00;77.45;101840.44;5005120;28;20100;-67
2022/01/16 01:30:45;;;;;;;74.07;60.28;;;;;;;2.10;77.26;101835.31;5006520;28;20489;-67
2022/01/16 01:33:14;;;;;;;75.28;60.22;;;;;;;1.98;77.57;101835.28;5006044;28;20394;-67
2022/01/16 01:35:40;;;;;;;87.70;61.95;;;;;;;1.60;78.66;101832.63;5024381;28;20057;-67
2022/01/16 01:38:08;;;;;;;78.70;55.63;;;;;;;1.85;78.22;101836.97;5007739;28;20076;-67
2022/01/16 01:40:36;;;;;;;73.68;54.45;;;;;;;1.84;77.97;101832.69;5006314;28;20564;-67
2022/01/16 01:51:00;;;;;;;68.85;51.17;;;;;;;1.92;76.76;101776.63;5007090;28;20053;-67
2022/01/16 01:51:32;;;;;;;74.03;54.85;;;;;;;1.51;78.95;101736.13;5007191;28;20405;-67
2022/01/16 01:53:59;;;;;;;79.82;55.65;;;;;;;1.68;78.08;101727.50;5009639;28;20045;-67
2022/01/16 01:56:26;;;;;;;86.03;58.15;;;;;;;1.65;78.48;101750.78;5009299;28;20049;-67
2022/01/16 01:58:55;;;;;;;79.03;59.72;;;;;;;1.61;78.21;101749.06;5009536;28;20049;-67
2022/01/16 02:01:23;;;;;;;78.22;57.22;;;;;;;1.25;79.44;101754.16;5009235;28;20041;-67
2022/01/16 02:03:50;;;;;;;85.40;56.42;;;;;;;1.22;78.06;101765.34;5009382;28;20092;-67
2022/01/16 02:06:20;;;;;;;81.18;49.50;;;;;;;1.46;77.53;101751.63;5009739;28;20042;-67
2022/01/16 02:08:50;;;;;;;88.40;57.70;;;;;;;1.25;79.55;101764.50;5009572;28;20045;-67
2022/01/16 02:11:17;;;;;;;93.72;66.10;;;;;;;1.06;81.13;101763.59;5009769;28;20060;-67
2022/01/16 02:13:54;;;;;;;82.55;56.13;;;;;;;1.01;81.09;101761.81;5009517;28;20050;-67
2022/01/16 02:30:56;;;;;;;79.00;51.47;;;;;;;1.66;78.34;101739.59;5009579;28;20115;-67
2022/01/16 02:34:29;;;;;;;75.15;50.22;;;;;;;1.40;78.60;101746.44;4990008;28;20046;-67
2022/01/16 02:36:15;;;;;;;77.13;49.28;;;;;;;1.36;78.07;101742.13;5007743;28;20096;-67
2022/01/16 02:38:45;;;;;;;80.78;53.53;;;;;;;1.48;77.79;101744.72;5008796;28;20077;-67
2022/01/16 02:41:11;;;;;;;73.63;51.65;;;;;;;1.53;77.78;101737.84;5009366;28;20066;-67
2022/01/16 02:43:44;;;;;;;87.85;55.58;;;;;;;1.54;77.65;101737.00;5008051;28;20169;-67
2022/01/16 02:48:54;;;;;;;79.93;57.63;;;;;;;1.57;77.02;101731.81;5008697;28;20475;-67
2022/01/16 02:51:22;;;;;;;82.93;52.75;;;;;;;1.67;77.32;101722.34;5014646;28;20646;-67
2022/01/16 02:53:51;;;;;;;87.18;56.45;;;;;;;1.60;77.92;101711.13;5009011;28;20418;-67
2022/01/16 02:56:18;;;;;;;80.32;54.45;;;;;;;1.54;77.85;101710.28;5009113;28;20050;-67
2022/01/16 02:58:46;;;;;;;74.68;52.65;;;;;;;1.55;76.89;101702.53;5008938;28;20041;-67
2022/01/16 03:01:13;;;;;;;81.18;54.15;;;;;;;1.64;77.77;101720.63;5008944;28;20092;-67
2022/01/16 03:03:40;;;;;;;89.00;55.95;;;;;;;1.68;77.19;101717.19;5008012;28;20165;-67
2022/01/16 03:06:06;;;;;;;59.00;42.25;;;;;;;1.73;75.69;101707.72;5008714;28;20097;-67
2022/01/16 03:08:33;;;;;;;72.40;54.10;;;;;;;0.93;79.62;101717.91;5015211;28;20042;-67
2022/01/16 03:11:16;;;;;;;77.90;50.50;;;;;;;1.45;78.26;101698.19;5009149;28;20057;-67
2022/01/16 03:13:47;;;;;;;82.95;50.15;;;;;;;1.50;77.16;101691.31;5008100;28;20120;-67
2022/01/16 03:16:14;;;;;;;81.63;53.92;;;;;;;1.57;76.74;101674.94;5008743;28;20050;-67
2022/01/16 03:24:09;;;;;;;72.63;47.20;;;;;;;1.44;75.05;101653.41;5008310;28;20061;-67
2022/01/16 03:26:37;;;;;;;66.70;45.53;;;;;;;1.43;75.05;101664.63;5009332;28;20049;-67
2022/01/16 03:29:03;;;;;;;85.90;51.50;;;;;;;1.02;79.01;101661.13;5009563;28;20049;-68
2022/01/16 03:31:30;;;;;;;79.78;51.35;;;;;;;1.33;78.25;101662.03;5008301;28;20119;-67
2022/01/16 03:33:56;;;;;;;82.18;52.47;;;;;;;1.36;77.94;101646.53;5007613;28;20079;-67
2022/01/16 03:36:22;;;;;;;80.43;58.35;;;;;;;1.30;78.21;101647.38;5008524;28;20046;-67
2022/01/16 03:38:49;;;;;;;98.43;62.38;;;;;;;1.09;80.02;101649.06;5010255;28;20068;-67
2022/01/16 03:41:15;;;;;;;83.97;56.78;;;;;;;1.31;78.62;101640.50;5009993;28;20092;-67
2022/01/16 03:43:43;;;;;;;86.65;54.05;;;;;;;1.31;78.51;101630.16;5010390;28;20628;-67
2022/01/16 03:46:09;;;;;;;85.82;51.63;;;;;;;1.43;77.97;101635.34;5010928;28;20564;-67
2022/01/16 03:48:36;;;;;;;90.85;59.80;;;;;;;1.21;78.99;101618.09;5011481;28;20100;-67
2022/01/16 03:51:02;;;;;;;80.88;56.40;;;;;;;1.36;78.02;101610.34;5010554;28;20061;-67
2022/01/16 03:53:28;;;;;;;83.05;60.20;;;;;;;1.20;78.66;101604.31;5010850;28;20489;-67
2022/01/16 03:55:55;;;;;;;82.63;52.67;;;;;;;1.12;79.04;101600.88;5010321;28;20042;-67
2022/01/16 03:58:21;;;;;;;93.53;55.38;;;;;;;1.04;79.10;101600.00;5003852;28;20050;-67
2022/01/16 04:00:49;;;;;;;88.55;63.97;;;;;;;0.77;81.18;101593.09;5010694;28;20046;-67
2022/01/16 04:03:15;;;;;;;109.03;59.75;;;;;;;0.74;81.44;101590.47;5009744;28;20092;-67
2022/01/16 04:05:42;;;;;;;90.88;59.53;;;;;;;0.85;81.39;101593.09;5010838;28;20053;-67
2022/01/16 04:08:08;;;;;;;93.25;64.35;;;;;;;0.63;82.17;101602.50;5010546;28;20046;-67
2022/01/16 04:10:34;;;;;;;93.57;57.13;;;;;;;0.98;81.09;101600.88;5011377;28;20107;-67
2022/01/16 04:13:03;;;;;;;93.97;56.83;;;;;;;0.95;81.22;101598.28;5010700;28;20123;-67
2022/01/16 04:15:32;;;;;;;102.47;64.28;;;;;;;0.74;82.31;101589.66;5010452;28;20116;-67
2022/01/16 04:18:01;;;;;;;102.40;64.47;;;;;;;0.40;83.29;101593.84;5010355;28;20464;-67
2022/01/16 04:20:27;;;;;;;104.88;64.00;;;;;;;0.40;84.06;101596.44;5010345;28;20077;-67
2022/01/16 04:22:54;;;;;;;119.60;68.60;;;;;;;0.38;84.22;101580.06;5010443;28;20049;-67
2022/01/16 04:25:20;;;;;;;94.47;64.30;;;;;;;0.60;83.42;101592.19;5010814;28;20100;-67
2022/01/16 04:27:46;;;;;;;105.65;78.53;;;;;;;0.48;83.89;101587.00;5010235;28;20073;-67
2022/01/16 04:30:14;;;;;;;98.30;66.72;;;;;;;0.49;83.59;101586.13;5009715;28;20096;-67
2022/01/16 04:32:40;;;;;;;99.45;65.07;;;;;;;0.87;81.70;101592.25;5009878;28;20045;-67
2022/01/16 04:35:09;;;;;;;100.75;63.70;;;;;;;0.95;81.61;101600.00;5011751;28;20505;-67
2022/01/16 04:37:35;;;;;;;102.93;72.90;;;;;;;0.77;82.77;101590.50;5010292;28;20088;-67
2022/01/16 04:40:03;;;;;;;105.40;70.43;;;;;;;0.84;82.14;101592.25;5010659;28;20391;-67
2022/01/16 04:45:15;;;;;;;89.72;62.88;;;;;;;0.98;81.60;101593.13;5009534;28;20409;-67
2022/01/16 04:47:42;;;;;;;99.53;64.68;;;;;;;0.93;81.56;101596.53;5010059;28;20073;-67
2022/01/16 04:50:13;;;;;;;84.63;57.17;;;;;;;1.08;81.13;101585.34;5010013;28;20049;-67
2022/01/16 04:52:40;;;;;;;88.63;57.17;;;;;;;1.13;80.04;101583.66;5010055;28;20068;-67
2022/01/16 04:55:08;;;;;;;94.82;58.33;;;;;;;1.29;79.28;101578.50;5010975;28;20108;-67
2022/01/16 04:57:35;;;;;;;92.85;53.63;;;;;;;1.29;78.90;101573.34;5011382;28;20053;-67
2022/01/16 05:00:02;;;;;;;85.72;55.88;;;;;;;1.41;78.89;101578.47;5007250;28;20050;-67
2022/01/16 05:02:28;;;;;;;98.05;58.75;;;;;;;1.26;79.69;101582.78;4998993;28;20100;-67
2022/01/16 05:04:55;;;;;;;88.28;56.58;;;;;;;1.10;80.33;101575.91;5007445;28;20046;-67
2022/01/16 05:07:22;;;;;;;86.88;57.38;;;;;;;1.00;80.87;101569.03;5006007;28;20054;-67
2022/01/16 05:09:49;;;;;;;82.95;56.35;;;;;;;1.08;80.47;101569.88;5007688;28;20100;-67
2022/01/16 05:12:25;;;;;;;94.32;59.92;;;;;;;1.11;80.55;101564.72;5007463;28;20432;-67
2022/01/16 05:17:35;;;;;;;79.07;56.00;;;;;;;1.21;79.67;101576.78;5007646;28;20049;-67
2022/01/16 05:20:01;;;;;;;81.38;55.92;;;;;;;1.49;79.02;101581.03;5007148;28;20045;-67
2022/01/16 05:22:29;;;;;;;76.97;53.45;;;;;;;1.53;78.27;101575.00;5007218;28;21034;-67
2022/01/16 05:24:56;;;;;;;69.38;49.38;;;;;;;1.64;77.18;101557.75;5007257;28;20050;-67
2022/01/16 05:27:22;;;;;;;72.80;48.03;;;;;;;1.56;77.07;101556.03;5008010;28;20050;-67
2022/01/16 05:29:48;;;;;;;61.63;47.35;;;;;;;1.57;74.22;101565.53;5011241;28;20046;-67
2022/01/16 05:32:16;;;;;;;76.25;50.28;;;;;;;1.38;76.08;101562.09;5010733;28;20041;-67
2022/01/16 05:34:42;;;;;;;67.53;46.90;;;;;;;1.33;75.93;101561.28;5009326;28;20050;-67
2022/01/16 05:37:08;;;;;;;66.85;46.78;;;;;;;1.30;75.58;101566.41;5009976;28;20054;-67
2022/01/16 05:39:37;;;;;;;63.45;45.40;;;;;;;1.25;75.63;101563.00;5010748;28;20563;-67
2022/01/16 05:42:04;;;;;;;57.22;45.17;;;;;;;1.24;74.84;101556.09;5011060;28;20077;-67
2022/01/16 05:44:30;;;;;;;57.40;47.20;;;;;;;1.27;74.38;101548.34;5011299;28;20037;-67
2022/01/16 05:46:56;;;;;;;60.92;50.15;;;;;;;1.23;74.59;101539.72;5009949;28;20567;-67
2022/01/16 05:49:23;;;;;;;67.70;48.53;;;;;;;1.23;75.03;101538.88;5010494;28;20105;-67
2022/01/16 05:51:49;;;;;;;64.32;49.63;;;;;;;1.20;75.68;101541.47;5010133;28;20096;-68
2022/01/16 05:54:15;;;;;;;64.72;47.65;;;;;;;1.26;75.02;101538.84;5009968;28;20084;-67
2022/01/16 05:56:43;;;;;;;62.53;47.25;;;;;;;1.17;75.07;101552.66;5010297;28;20080;-67
2022/01/16 05:59:09;;;;;;;65.72;50.75;;;;;;;1.19;74.75;101558.66;5009902;28;20057;-67
2022/01/16 06:01:36;;;;;;;51.30;37.83;;;;;;;1.33;71.86;101569.84;5010883;28;20050;-67
2022/01/16 06:04:03;;;;;;;54.55;43.80;;;;;;;1.18;71.93;101561.28;5009168;28;20064;-67
2022/01/16 06:06:29;;;;;;;64.22;46.83;;;;;;;1.10;73.52;101558.69;5010428;28;20464;-67
2022/01/16 06:08:55;;;;;;;65.40;50.13;;;;;;;1.11;74.09;101562.16;5009832;28;20042;-67
2022/01/16 06:11:22;;;;;;;65.45;43.92;;;;;;;1.08;72.68;101559.53;5008983;28;20066;-67
2022/01/16 06:13:49;;;;;;;62.78;51.90;;;;;;;1.01;73.81;101563.84;5008768;28;20050;-67
2022/01/16 06:16:16;;;;;;;65.78;49.70;;;;;;;0.88;74.81;101563.00;5002416;28;20069;-67
2022/01/16 06:18:42;;;;;;;65.57;52.13;;;;;;;0.96;74.65;101571.56;5009856;28;20112;-67
2022/01/16 06:21:08;;;;;;;58.53;48.15;;;;;;;0.79;74.62;101568.13;5010462;28;20049;-67
2022/01/16 06:23:35;;;;;;;78.10;52.30;;;;;;;0.77;75.02;101564.69;5010161;28;20066;-67
2022/01/16 06:26:01;;;;;;;60.80;46.95;;;;;;;0.85;74.25;101570.72;5009669;28;20054;-67
2022/01/16 06:28:29;;;;;;;63.00;49.50;;;;;;;0.86;74.43;101566.41;5009195;28;20046;-67
2022/01/16 06:30:57;;;;;;;71.22;51.53;;;;;;;0.78;74.51;101563.81;5009802;28;20456;-68
2022/01/16 06:33:24;;;;;;;62.40;47.67;;;;;;;0.80;74.03;101569.88;5008859;28;20100;-68
2022/01/16 06:35:50;;;;;;;67.15;52.13;;;;;;;0.80;74.27;101563.84;5010708;28;20207;-67
2022/01/16 06:38:17;;;;;;;71.53;51.70;;;;;;;0.89;73.68;101569.84;5008653;28;20046;-67
2022/01/16 06:40:43;;;;;;;79.50;49.25;;;;;;;0.56;75.68;101574.09;5008798;28;20494;-67
2022/01/16 06:43:10;;;;;;;89.13;52.78;;;;;;;0.14;79.63;101580.88;5009056;28;20469;-67
2022/01/16 06:45:36;;;;;;;90.15;52.05;;;;;;;0.36;78.81;101592.13;5009869;28;20054;-67
2022/01/16 06:48:04;;;;;;;88.68;53.45;;;;;;;0.57;78.18;101583.56;5008706;28;20062;-66
2022/01/16 06:50:31;;;;;;;72.80;49.20;;;;;;;0.63;76.96;101579.28;5009575;28;20075;-66
2022/01/16 06:52:57;;;;;;;67.63;46.10;;;;;;;0.47;77.02;101574.97;5008981;28;20103;-67
2022/01/16 06:55:24;;;;;;;74.07;49.28;;;;;;;0.60;76.18;101587.00;5008963;28;20065;-67
2022/01/16 06:57:50;;;;;;;64.80;45.42;;;;;;;0.62;75.87;101585.31;5008645;28;20073;-67
2022/01/16 07:00:16;;;;;;;63.88;46.10;;;;;;;0.57;75.50;101581.84;5004788;28;20046;-67
2022/01/16 07:02:43;;;;;;;84.70;48.88;;;;;;;0.10;79.19;101588.56;5009277;28;20038;-67
2022/01/16 07:05:11;;;;;;;77.60;51.65;;;;;;;0.41;78.40;101586.09;5012182;28;20493;-67
2022/01/16 07:07:38;;;;;;;62.28;44.60;;;;;;;0.49;76.43;101583.53;5009089;28;20042;-67
2022/01/16 07:10:05;;;;;;;71.03;47.00;;;;;;;0.52;76.55;101577.56;5008298;28;20073;-67
2022/01/16 07:12:31;;;;;;;75.25;49.10;;;;;;;0.44;77.34;101570.63;5008477;28;20041;-67
2022/01/16 07:14:58;;;;;;;74.25;49.97;;;;;;;0.56;77.17;101566.34;5003342;28;20074;-67
2022/01/16 07:17:24;;;;;;;67.63;48.92;;;;;;;0.59;76.45;101550.91;4999200;28;20054;-67
2022/01/16 07:19:50;;;;;;;74.13;50.65;;;;;;;0.42;77.84;101556.00;4997457;28;20073;-67
2022/01/16 07:22:21;;;;;;;92.05;55.63;;;;;;;0.16;80.12;101544.75;4999846;28;20050;-66
2022/01/16 07:24:47;;;;;;;80.75;51.05;;;;;;;0.10;79.79;101557.63;5006814;28;20053;-66
2022/01/16 07:27:14;;;;;;;106.85;59.65;;;;;;;0.19;80.83;101561.09;5007087;28;20450;-66
2022/01/16 07:29:40;;;;;;;97.88;60.83;;;;;;;0.27;81.47;101574.00;5007711;28;20045;-67
2022/01/16 07:32:07;;;;;;;118.03;62.05;;;;;;;0.37;81.84;101579.22;5008015;28;20049;-67
2022/01/16 07:34:34;;;;;;;106.78;58.83;;;;;;;0.50;80.77;101580.13;5007848;28;20132;-68
2022/01/16 07:37:01;;;;;;;97.65;59.08;;;;;;;0.63;80.28;101589.59;5007077;28;20054;-68
2022/01/16 07:39:29;;;;;;;100.85;61.58;;;;;;;0.51;81.13;101573.25;5007661;28;20050;-68
2022/01/16 07:41:56;;;;;;;103.50;61.03;;;;;;;0.48;81.42;101587.84;5007931;28;20046;-68
2022/01/16 07:44:22;;;;;;;101.00;62.45;;;;;;;0.78;80.69;101589.63;5006683;28;20113;-68
2022/01/16 07:46:48;;;;;;;110.70;68.13;;;;;;;0.57;82.32;101594.75;5007404;28;20046;-68
2022/01/16 07:49:15;;;;;;;109.22;65.35;;;;;;;0.61;82.42;101590.47;5007019;28;20050;-68
2022/01/16 07:51:41;;;;;;;104.05;63.25;;;;;;;0.61;82.56;101587.88;5007094;28;20045;-68
2022/01/16 07:54:07;;;;;;;100.45;61.13;;;;;;;1.10;80.92;101594.00;5005650;28;20058;-68
2022/01/16 07:56:35;;;;;;;96.28;68.18;;;;;;;0.59;82.70;101594.78;5007050;28;20058;-68
2022/01/16 07:59:02;;;;;;;106.38;76.22;;;;;;;0.67;82.79;101593.91;4990721;28;20057;-68
2022/01/16 08:01:28;;;;;;;97.10;67.53;;;;;;;0.62;82.59;101593.06;5007041;28;20045;-68
2022/01/16 08:03:54;;;;;;;98.85;66.43;;;;;;;0.57;83.53;101589.59;4998384;28;20096;-68
2022/01/16 08:06:21;;;;;;;106.28;67.50;;;;;;;0.46;84.13;101589.56;4999203;28;20100;-68
2022/01/16 08:08:47;;;;;;;101.65;62.30;;;;;;;0.38;85.23;101588.69;5006258;28;20046;-68
2022/01/16 08:11:13;;;;;;;92.38;66.10;;;;;;;0.51;84.38;101592.16;5007321;28;20046;-68
2022/01/16 08:13:42;;;;;;;89.53;63.90;;;;;;;0.57;84.29;101601.63;5007115;28;20050;-68
2022/01/16 08:16:09;;;;;;;96.55;69.07;;;;;;;1.01;82.96;101600.00;5007159;28;20042;-68
2022/01/16 08:18:36;;;;;;;99.63;70.53;;;;;;;1.15;82.42;101593.13;5006802;28;20038;-67
2022/01/16 08:21:02;;;;;;;92.03;67.90;;;;;;;0.73;83.55;101599.09;5006059;28;20045;-68
2022/01/16 08:23:29;;;;;;;95.28;67.97;;;;;;;1.07;83.01;101583.66;5004204;28;20074;-68
2022/01/16 08:25:55;;;;;;;92.82;63.38;;;;;;;0.97;83.54;101581.06;5006043;28;20045;-68
2022/01/16 08:28:22;;;;;;;95.88;65.45;;;;;;;1.29;81.97;101577.63;4996591;28;20043;-68
2022/01/16 08:30:49;;;;;;;94.22;67.57;;;;;;;1.20;82.23;101573.31;5002146;28;20046;-68
2022/01/16 08:33:16;;;;;;;94.70;69.93;;;;;;;1.08;82.81;101570.72;4998305;28;20092;-68
2022/01/16 08:35:42;;;;;;;92.93;64.28;;;;;;;0.99;83.65;101575.91;5004827;28;20489;-68
2022/01/16 08:38:09;;;;;;;86.10;65.50;;;;;;;0.76;84.56;101572.44;5004400;28;20054;-68
2022/01/16 08:40:35;;;;;;;77.38;58.58;;;;;;;0.96;84.36;101578.50;5010125;28;20046;-68
2022/01/16 08:43:08;;;;;;;88.18;61.67;;;;;;;0.93;84.39;101576.75;4998234;28;20406;-68
2022/01/16 08:45:35;;;;;;;88.60;64.47;;;;;;;1.17;83.44;101570.75;5009172;28;20104;-68
2022/01/16 08:48:03;;;;;;;79.95;57.35;;;;;;;1.40;82.16;101571.56;5004468;28;20057;-68
2022/01/16 08:50:30;;;;;;;85.45;67.13;;;;;;;1.39;82.37;101576.75;4999416;28;20046;-68
2022/01/16 08:52:56;;;;;;;76.90;53.70;;;;;;;1.66;81.75;101576.72;4992643;28;20046;-68
2022/01/16 08:55:23;;;;;;;77.22;56.25;;;;;;;1.66;81.39;101586.19;5010010;28;20049;-68
2022/01/16 08:57:49;;;;;;;85.72;71.35;;;;;;;1.59;82.16;101598.25;5007494;28;20049;-68
2022/01/16 09:00:16;;;;;;;92.15;82.13;;;;;;;1.44;82.53;101596.53;5009930;28;20049;-67
2022/01/16 09:02:42;;;;;;;80.32;53.28;;;;;;;1.69;81.86;101588.78;5004687;28;20513;-68
2022/01/16 09:05:11;;;;;;;80.93;58.45;;;;;;;1.55;82.17;101586.22;4995480;28;20453;-68
2022/01/16 09:07:38;;;;;;;80.72;61.30;;;;;;;1.44;82.18;101587.97;5010426;28;20567;-68
2022/01/16 09:10:05;;;;;;;87.65;59.97;;;;;;;1.28;83.88;101588.81;5012761;28;20490;-68
2022/01/16 09:12:32;;;;;;;82.40;61.45;;;;;;;1.61;82.84;101591.38;5014817;28;20054;-67
2022/01/16 09:14:58;;;;;;;79.53;61.83;;;;;;;1.21;83.73;101584.53;5014415;28;20042;-67
2022/01/16 09:17:25;;;;;;;91.30;61.20;;;;;;;0.91;85.24;101578.47;5014006;28;20283;-67
2022/01/16 09:19:51;;;;;;;85.75;62.42;;;;;;;1.11;85.69;101591.38;5014363;28;20394;-67
2022/01/16 09:22:19;;;;;;;86.88;59.95;;;;;;;1.13;85.06;101589.69;5014438;28;20460;-67
2022/01/16 09:24:45;;;;;;;89.97;61.67;;;;;;;1.29;85.15;101595.72;5015094;28;20053;-67
2022/01/16 09:27:11;;;;;;;89.32;62.38;;;;;;;1.42;84.88;101606.03;5007393;28;20041;-67
2022/01/16 09:29:38;;;;;;;89.60;61.90;;;;;;;1.45;83.99;101589.66;5015249;28;20113;-67
2022/01/16 09:32:05;;;;;;;83.65;60.20;;;;;;;1.57;83.95;101593.97;5020919;28;20065;-66
2022/01/16 09:34:32;;;;;;;83.72;62.63;;;;;;;1.46;84.13;101596.56;5037490;28;20122;-66
2022/01/16 09:36:58;;;;;;;85.53;61.78;;;;;;;1.86;83.45;101593.03;5034909;28;20072;-67
2022/01/16 09:39:26;;;;;;;86.70;72.80;;;;;;;2.26;81.74;101604.09;5023023;28;20097;-67
2022/01/16 09:41:53;;;;;;;79.95;59.60;;;;;;;2.41;80.85;101601.47;5036156;28;20030;-67
2022/01/16 09:44:19;;;;;;;80.60;58.13;;;;;;;2.57;79.99;101597.06;5035701;28;20065;-67
2022/01/16 09:46:45;;;;;;;76.72;57.67;;;;;;;2.72;79.87;101597.00;5036443;28;20045;-67
2022/01/16 09:49:12;;;;;;;80.45;58.08;;;;;;;2.58;80.32;101609.16;5028793;28;20034;-66
2022/01/16 09:51:38;;;;;;;83.20;58.08;;;;;;;2.53;81.33;101605.72;5036499;28;20105;-66
2022/01/16 09:54:05;;;;;;;80.57;54.95;;;;;;;2.58;82.90;101613.47;5033756;28;20104;-66
2022/01/16 09:56:33;;;;;;;80.28;55.28;;;;;;;2.79;82.39;101621.13;5010744;28;20046;-65
2022/01/16 09:58:59;;;;;;;86.65;77.53;;;;;;;2.86;82.22;101621.06;5014386;28;20556;-66
2022/01/16 10:01:26;;;;;;;90.10;81.15;;;;;;;2.93;82.40;101621.88;5014224;28;20054;-68
2022/01/16 10:03:52;;;;;;;109.80;100.47;;;;;;;2.85;83.47;101611.56;5005707;28;20046;-64
2022/01/16 10:06:21;;;;;;;80.72;64.50;;;;;;;2.96;82.84;101600.31;5010832;28;20041;-66
2022/01/16 10:08:49;;;;;;;58.00;51.83;;;;;;;3.40;81.78;101605.97;5005932;28;20041;-65
2022/01/16 10:11:35;;;;;;;65.38;58.80;;;;;;;3.56;80.95;101588.56;5008976;28;20100;-66
2022/01/16 10:14:11;;;;;;;273.08;250.40;;;;;;;3.31;81.32;101578.41;4999610;28;20391;-65
2022/01/16 10:16:39;;;;;;;55.10;49.30;;;;;;;3.57;80.87;101588.56;4999134;28;20053;-65
2022/01/16 10:19:19;;;;;;;54.67;48.97;;;;;;;3.77;79.88;101590.97;5011729;28;20045;-65
2022/01/16 10:21:45;;;;;;;57.15;49.20;;;;;;;3.85;80.04;101592.56;5012223;28;20049;-66
2022/01/16 10:24:23;;;;;;;102.05;93.72;;;;;;;3.85;79.40;101602.94;5001866;28;20100;-65
2022/01/16 10:27:10;;;;;;;58.70;52.28;;;;;;;3.82;79.96;101603.00;5011257;28;20485;-66
2022/01/16 10:29:39;;;;;;;49.67;44.60;;;;;;;3.61;80.36;101599.75;5007993;28;20045;-66
2022/01/16 10:32:12;;;;;;;67.22;60.72;;;;;;;3.72;80.70;101608.28;5003103;28;20046;-66
2022/01/16 10:34:40;;;;;;;60.80;55.00;;;;;;;3.64;80.53;101592.81;5009860;28;20056;-66
2022/01/16 10:37:19;;;;;;;73.05;65.82;;;;;;;3.82;79.63;101579.63;5011888;28;20049;-66
2022/01/16 10:39:57;;;;;;;54.08;48.42;;;;;;;3.79;79.96;101579.69;5011887;28;20041;-66
2022/01/16 10:42:24;;;;;;;58.17;52.20;;;;;;;3.86;79.53;101588.25;5012407;28;20103;-66
2022/01/16 10:45:01;;;;;;;240.63;223.45;;;;;;;3.61;80.08;101592.84;5012442;28;20045;-66
2022/01/16 10:47:37;;;;;;;348.02;315.52;;;;;;;3.64;79.66;101597.13;5012339;28;20149;-67
2022/01/16 10:50:08;;;;;;;147.63;136.93;;;;;;;3.32;80.64;101610.38;5012065;28;20057;-67
2022/01/16 10:52:46;;;;;;;50.35;45.75;;;;;;;3.50;80.76;101615.41;5013316;28;20465;-66
2022/01/16 10:55:13;;;;;;;170.88;157.95;;;;;;;3.43;80.97;101618.94;5013462;28;20046;-66
2022/01/16 10:57:40;;;;;;;48.20;43.05;;;;;;;3.65;80.37;101606.63;5013332;28;20046;-66
2022/01/16 11:00:12;;;;;;;97.60;89.57;;;;;;;3.61;80.04;101613.59;5013286;28;20441;-68
2022/01/16 11:02:40;;;;;;;176.20;163.35;;;;;;;3.23;81.29;101608.72;5004107;28;20116;-67
2022/01/16 11:05:09;;;;;;;298.92;273.42;;;;;;;3.26;81.39;101628.56;5013421;28;20399;-67
2022/01/16 11:07:36;;;;;;;156.75;144.60;;;;;;;3.23;81.55;101626.00;5013154;28;20100;-67
2022/01/16 11:10:19;;;;;;;66.45;60.03;;;;;;;3.42;81.03;101617.22;5013438;28;20049;-67
2022/01/16 11:12:47;;;;;;;90.75;83.30;;;;;;;3.54;80.81;101619.69;5004642;28;20052;-67
2022/01/16 11:15:15;;;;;;;72.88;66.10;;;;;;;3.66;80.08;101629.09;5012770;28;20046;-67
2022/01/16 11:17:41;;;;;;;324.55;295.90;;;;;;;3.57;80.32;101627.44;5013706;28;20111;-67
2022/01/16 11:20:10;;;;;;;380.95;340.13;;;;;;;3.51;80.07;101624.06;5013363;28;20076;-67
2022/01/16 11:22:56;;;;;;;396.48;354.08;;;;;;;3.49;80.22;101611.09;5012770;28;20081;-66
2022/01/16 11:25:30;;;;;;;147.85;135.45;;;;;;;3.49;80.56;101621.47;5006138;28;20124;-66
2022/01/16 11:27:59;;;;;;;227.18;208.25;;;;;;;3.50;80.69;101627.50;5013286;28;20042;-66
2022/01/16 11:30:28;;;;;;;126.60;116.47;;;;;;;3.32;81.11;101615.56;5012611;28;20051;-67
2022/01/16 11:32:54;;;;;;;153.38;140.93;;;;;;;3.43;80.95;101613.75;5010297;28;20048;-68
2022/01/16 11:35:21;;;;;;;81.93;74.35;;;;;;;3.69;79.72;101614.38;5013182;28;20100;-68
2022/01/16 11:37:47;;;;;;;233.32;214.60;;;;;;;3.72;79.66;101606.56;5012805;28;20050;-67
2022/01/16 11:40:24;;;;;;;225.32;206.43;;;;;;;3.82;79.71;101602.13;5013911;28;20049;-67
2022/01/16 11:43:23;;;;;;;133.30;122.95;;;;;;;3.59;79.87;101604.06;5012985;28;20297;-68
2022/01/16 11:46:02;;;;;;;70.10;62.63;;;;;;;3.80;79.97;101606.47;4969818;28;20037;-67
2022/01/16 11:48:35;;;;;;;137.48;126.88;;;;;;;3.91;78.98;101610.69;5012843;28;20046;-68
2022/01/16 11:51:03;;;;;;;93.25;85.20;;;;;;;3.92;79.01;101609.78;5002593;28;20450;-68
2022/01/16 11:53:53;;;;;;;69.32;61.53;;;;;;;4.14;78.14;101599.19;5011814;28;20108;-68
2022/01/16 11:56:58;;;;;;;305.70;280.63;;;;;;;3.86;78.91;101604.69;5012617;28;20552;-68